sensor_id;sensor_type;location;lat;lon;timestamp;pressure;altitude;pressure_sealevel;temperature;humidity
37852;BME280;23691;52.486;4.650;2023-05-02T00:02:16;102119.53;;;11.76;78.43
37852;BME280;23691;52.486;4.650;2023-05-02T00:04:42;102121.94;;;11.79;78.34
37852;BME280;23691;52.486;4.650;2023-05-02T00:07:07;102130.84;;;11.79;78.02
37852;BME280;23691;52.486;4.650;2023-05-02T00:09:33;102118.97;;;11.72;77.69
37852;BME280;23691;52.486;4.650;2023-05-02T00:11:58;102117.84;;;11.65;77.71
37852;BME280;23691;52.486;4.650;2023-05-02T00:14:24;102124.31;;;11.63;77.46
37852;BME280;23691;52.486;4.650;2023-05-02T00:16:50;102129.28;;;11.67;77.52
37852;BME280;23691;52.486;4.650;2023-05-02T00:19:15;102126.00;;;11.64;77.21
37852;BME280;23691;52.486;4.650;2023-05-02T00:21:40;102117.13;;;11.63;76.97
37852;BME280;23691;52.486;4.650;2023-05-02T00:24:06;102134.47;;;11.59;77.04
37852;BME280;23691;52.486;4.650;2023-05-02T00:26:31;102143.09;;;11.53;77.18
37852;BME280;23691;52.486;4.650;2023-05-02T00:28:56;102151.41;;;11.50;76.84
37852;BME280;23691;52.486;4.650;2023-05-02T00:31:23;102159.16;;;11.43;76.40
37852;BME280;23691;52.486;4.650;2023-05-02T00:33:48;102158.44;;;11.41;76.24
37852;BME280;23691;52.486;4.650;2023-05-02T00:36:18;102158.84;;;11.36;75.92
37852;BME280;23691;52.486;4.650;2023-05-02T00:38:44;102161.81;;;11.33;75.81
37852;BME280;23691;52.486;4.650;2023-05-02T00:41:09;102168.00;;;11.34;75.28
37852;BME280;23691;52.486;4.650;2023-05-02T00:43:35;102173.75;;;11.29;75.32
37852;BME280;23691;52.486;4.650;2023-05-02T00:46:03;102185.34;;;11.30;75.13
37852;BME280;23691;52.486;4.650;2023-05-02T00:48:28;102184.66;;;11.37;74.43
37852;BME280;23691;52.486;4.650;2023-05-02T00:50:54;102185.78;;;11.35;74.24
37852;BME280;23691;52.486;4.650;2023-05-02T00:53:21;102166.44;;;11.31;74.13
37852;BME280;23691;52.486;4.650;2023-05-02T00:55:46;102162.09;;;11.30;74.02
37852;BME280;23691;52.486;4.650;2023-05-02T00:58:15;102163.91;;;11.30;73.59
37852;BME280;23691;52.486;4.650;2023-05-02T01:01:07;102166.28;;;11.23;73.54
37852;BME280;23691;52.486;4.650;2023-05-02T01:09:02;102180.31;;;11.06;72.90
37852;BME280;23691;52.486;4.650;2023-05-02T01:14:04;102184.84;;;11.05;72.59
37852;BME280;23691;52.486;4.650;2023-05-02T01:16:31;102173.84;;;11.08;72.58
37852;BME280;23691;52.486;4.650;2023-05-02T01:18:58;102178.09;;;11.11;72.49
37852;BME280;23691;52.486;4.650;2023-05-02T01:21:25;102185.72;;;11.15;72.12
37852;BME280;23691;52.486;4.650;2023-05-02T01:24:05;102179.09;;;11.20;72.34
37852;BME280;23691;52.486;4.650;2023-05-02T01:26:45;102182.88;;;11.17;72.23
37852;BME280;23691;52.486;4.650;2023-05-02T01:29:16;102183.16;;;11.14;72.21
37852;BME280;23691;52.486;4.650;2023-05-02T01:31:45;102188.69;;;11.12;72.33
37852;BME280;23691;52.486;4.650;2023-05-02T01:34:12;102197.41;;;11.14;72.25
37852;BME280;23691;52.486;4.650;2023-05-02T01:36:41;102201.78;;;11.15;72.36
37852;BME280;23691;52.486;4.650;2023-05-02T01:39:08;102202.75;;;11.14;72.08
37852;BME280;23691;52.486;4.650;2023-05-02T01:41:35;102201.34;;;11.10;72.21
37852;BME280;23691;52.486;4.650;2023-05-02T01:44:01;102204.44;;;11.06;72.10
37852;BME280;23691;52.486;4.650;2023-05-02T01:46:31;102201.44;;;10.99;71.76
37852;BME280;23691;52.486;4.650;2023-05-02T01:48:58;102212.75;;;11.03;71.57
37852;BME280;23691;52.486;4.650;2023-05-02T01:51:28;102220.34;;;11.07;71.33
37852;BME280;23691;52.486;4.650;2023-05-02T01:53:57;102215.41;;;11.03;71.08
37852;BME280;23691;52.486;4.650;2023-05-02T01:56:24;102219.78;;;11.04;71.00
37852;BME280;23691;52.486;4.650;2023-05-02T01:58:52;102220.06;;;11.01;70.73
37852;BME280;23691;52.486;4.650;2023-05-02T02:01:19;102225.66;;;10.98;70.68
37852;BME280;23691;52.486;4.650;2023-05-02T02:03:45;102218.75;;;10.95;70.59
37852;BME280;23691;52.486;4.650;2023-05-02T02:06:12;102226.78;;;10.95;70.44
37852;BME280;23691;52.486;4.650;2023-05-02T02:08:38;102239.31;;;10.94;70.35
37852;BME280;23691;52.486;4.650;2023-05-02T02:11:12;102246.06;;;10.89;70.42
37852;BME280;23691;52.486;4.650;2023-05-02T02:13:44;102249.75;;;10.88;70.24
37852;BME280;23691;52.486;4.650;2023-05-02T02:16:18;102252.19;;;10.80;69.80
37852;BME280;23691;52.486;4.650;2023-05-02T02:18:46;102257.72;;;10.78;69.63
37852;BME280;23691;52.486;4.650;2023-05-02T02:21:16;102267.44;;;10.79;69.63
37852;BME280;23691;52.486;4.650;2023-05-02T02:23:43;102271.09;;;10.78;69.52
37852;BME280;23691;52.486;4.650;2023-05-02T02:26:11;102271.47;;;10.73;69.44
37852;BME280;23691;52.486;4.650;2023-05-02T02:28:38;102269.78;;;10.72;69.20
37852;BME280;23691;52.486;4.650;2023-05-02T02:31:03;102272.59;;;10.71;68.93
37852;BME280;23691;52.486;4.650;2023-05-02T02:33:29;102269.78;;;10.72;68.74
37852;BME280;23691;52.486;4.650;2023-05-02T02:36:09;102268.53;;;10.77;68.76
37852;BME280;23691;52.486;4.650;2023-05-02T02:41:33;102277.28;;;10.79;68.35
37852;BME280;23691;52.486;4.650;2023-05-02T02:44:10;102273.06;;;10.76;68.32
37852;BME280;23691;52.486;4.650;2023-05-02T02:46:46;102280.81;;;10.79;68.15
37852;BME280;23691;52.486;4.650;2023-05-02T02:49:31;102286.75;;;10.83;68.19
37852;BME280;23691;52.486;4.650;2023-05-02T02:52:16;102287.00;;;10.80;68.09
37852;BME280;23691;52.486;4.650;2023-05-02T02:54:46;102281.06;;;10.76;68.16
37852;BME280;23691;52.486;4.650;2023-05-02T03:00:00;102288.66;;;10.71;67.99
37852;BME280;23691;52.486;4.650;2023-05-02T03:02:31;102296.53;;;10.72;67.93
37852;BME280;23691;52.486;4.650;2023-05-02T03:04:57;102295.13;;;10.68;67.91
37852;BME280;23691;52.486;4.650;2023-05-02T03:07:26;102305.16;;;10.76;68.21
37852;BME280;23691;52.486;4.650;2023-05-02T03:09:51;102302.09;;;10.81;67.84
37852;BME280;23691;52.486;4.650;2023-05-02T03:12:17;102307.19;;;10.84;67.69
37852;BME280;23691;52.486;4.650;2023-05-02T03:14:42;102310.00;;;10.82;67.82
37852;BME280;23691;52.486;4.650;2023-05-02T03:17:08;102321.44;;;10.84;67.59
37852;BME280;23691;52.486;4.650;2023-05-02T03:19:33;102315.22;;;10.84;67.69
37852;BME280;23691;52.486;4.650;2023-05-02T03:21:59;102324.38;;;10.81;67.54
37852;BME280;23691;52.486;4.650;2023-05-02T03:24:24;102336.84;;;10.71;67.63
37852;BME280;23691;52.486;4.650;2023-05-02T03:26:57;102338.31;;;10.64;67.88
37852;BME280;23691;52.486;4.650;2023-05-02T03:29:23;102335.66;;;10.64;67.78
37852;BME280;23691;52.486;4.650;2023-05-02T03:31:49;102342.69;;;10.65;67.73
37852;BME280;23691;52.486;4.650;2023-05-02T03:34:15;102348.88;;;10.65;67.75
37852;BME280;23691;52.486;4.650;2023-05-02T03:36:40;102352.28;;;10.67;67.66
37852;BME280;23691;52.486;4.650;2023-05-02T03:39:06;102353.41;;;10.65;67.72
37852;BME280;23691;52.486;4.650;2023-05-02T03:41:32;102348.66;;;10.68;67.89
37852;BME280;23691;52.486;4.650;2023-05-02T03:43:57;102354.00;;;10.68;67.74
37852;BME280;23691;52.486;4.650;2023-05-02T03:46:22;102349.03;;;10.64;67.91
37852;BME280;23691;52.486;4.650;2023-05-02T03:48:48;102355.16;;;10.55;67.67
37852;BME280;23691;52.486;4.650;2023-05-02T03:51:13;102363.69;;;10.48;67.96
37852;BME280;23691;52.486;4.650;2023-05-02T03:53:38;102366.88;;;10.42;67.77
37852;BME280;23691;52.486;4.650;2023-05-02T03:56:04;102360.66;;;10.42;67.79
37852;BME280;23691;52.486;4.650;2023-05-02T03:58:32;102363.59;;;10.39;67.92
37852;BME280;23691;52.486;4.650;2023-05-02T04:00:58;102371.47;;;10.40;67.87
37852;BME280;23691;52.486;4.650;2023-05-02T04:03:23;102376.00;;;10.40;67.58
37852;BME280;23691;52.486;4.650;2023-05-02T04:05:49;102377.56;;;10.42;67.63
37852;BME280;23691;52.486;4.650;2023-05-02T04:08:16;102385.72;;;10.41;67.73
37852;BME280;23691;52.486;4.650;2023-05-02T04:10:41;102384.75;;;10.42;67.73
37852;BME280;23691;52.486;4.650;2023-05-02T04:13:06;102388.00;;;10.45;67.53
37852;BME280;23691;52.486;4.650;2023-05-02T04:15:32;102386.91;;;10.48;67.71
37852;BME280;23691;52.486;4.650;2023-05-02T04:17:57;102392.88;;;10.40;67.69
37852;BME280;23691;52.486;4.650;2023-05-02T04:20:25;102390.59;;;10.36;67.72
37852;BME280;23691;52.486;4.650;2023-05-02T04:22:51;102393.25;;;10.36;67.67
37852;BME280;23691;52.486;4.650;2023-05-02T04:25:17;102394.38;;;10.33;67.47
37852;BME280;23691;52.486;4.650;2023-05-02T04:27:42;102399.13;;;10.29;67.38
37852;BME280;23691;52.486;4.650;2023-05-02T04:30:08;102402.28;;;10.35;67.40
37852;BME280;23691;52.486;4.650;2023-05-02T04:32:36;102405.31;;;10.30;67.14
37852;BME280;23691;52.486;4.650;2023-05-02T04:35:02;102407.00;;;10.31;67.11
37852;BME280;23691;52.486;4.650;2023-05-02T04:37:28;102414.94;;;10.32;66.93
37852;BME280;23691;52.486;4.650;2023-05-02T04:39:53;102425.50;;;10.34;67.36
37852;BME280;23691;52.486;4.650;2023-05-02T04:42:18;102429.28;;;10.31;66.56
37852;BME280;23691;52.486;4.650;2023-05-02T04:44:43;102428.41;;;10.31;66.70
37852;BME280;23691;52.486;4.650;2023-05-02T04:47:09;102433.50;;;10.23;66.63
37852;BME280;23691;52.486;4.650;2023-05-02T04:49:34;102440.81;;;10.21;66.51
37852;BME280;23691;52.486;4.650;2023-05-02T04:52:00;102448.81;;;10.21;66.26
37852;BME280;23691;52.486;4.650;2023-05-02T04:54:25;102451.38;;;10.22;66.10
37852;BME280;23691;52.486;4.650;2023-05-02T04:56:52;102446.63;;;10.26;65.99
37852;BME280;23691;52.486;4.650;2023-05-02T04:59:17;102453.47;;;10.30;65.74
37852;BME280;23691;52.486;4.650;2023-05-02T05:01:42;102453.69;;;10.27;65.38
37852;BME280;23691;52.486;4.650;2023-05-02T05:04:09;102460.00;;;10.26;65.37
37852;BME280;23691;52.486;4.650;2023-05-02T05:06:34;102452.13;;;10.24;65.29
37852;BME280;23691;52.486;4.650;2023-05-02T05:09:00;102461.84;;;10.25;65.14
37852;BME280;23691;52.486;4.650;2023-05-02T05:11:25;102461.50;;;10.30;65.08
37852;BME280;23691;52.486;4.650;2023-05-02T05:13:50;102467.81;;;10.40;64.59
37852;BME280;23691;52.486;4.650;2023-05-02T05:16:16;102460.72;;;10.50;64.45
37852;BME280;23691;52.486;4.650;2023-05-02T05:18:41;102464.63;;;10.58;64.20
37852;BME280;23691;52.486;4.650;2023-05-02T05:21:08;102464.50;;;10.59;63.91
37852;BME280;23691;52.486;4.650;2023-05-02T05:23:34;102473.63;;;10.57;63.88
37852;BME280;23691;52.486;4.650;2023-05-02T05:26:10;102471.53;;;10.60;63.73
37852;BME280;23691;52.486;4.650;2023-05-02T05:28:36;102478.63;;;10.61;63.56
37852;BME280;23691;52.486;4.650;2023-05-02T05:31:05;102484.69;;;10.63;63.45
37852;BME280;23691;52.486;4.650;2023-05-02T05:33:31;102498.78;;;10.65;63.44
37852;BME280;23691;52.486;4.650;2023-05-02T05:36:11;102502.22;;;10.56;63.15
37852;BME280;23691;52.486;4.650;2023-05-02T05:38:37;102510.00;;;10.59;63.18
37852;BME280;23691;52.486;4.650;2023-05-02T05:41:02;102517.19;;;10.59;63.03
37852;BME280;23691;52.486;4.650;2023-05-02T05:43:29;102511.22;;;10.55;63.05
37852;BME280;23691;52.486;4.650;2023-05-02T05:45:55;102520.72;;;10.59;62.80
37852;BME280;23691;52.486;4.650;2023-05-02T05:48:21;102526.06;;;10.59;62.64
37852;BME280;23691;52.486;4.650;2023-05-02T05:50:47;102526.06;;;10.59;62.64
37852;BME280;23691;52.486;4.650;2023-05-02T05:53:13;102533.56;;;10.65;62.48
37852;BME280;23691;52.486;4.650;2023-05-02T05:55:38;102531.63;;;10.67;62.43
37852;BME280;23691;52.486;4.650;2023-05-02T05:58:04;102526.38;;;10.77;62.51
37852;BME280;23691;52.486;4.650;2023-05-02T06:00:33;102537.94;;;10.89;62.37
37852;BME280;23691;52.486;4.650;2023-05-02T06:02:58;102542.66;;;10.96;61.84
37852;BME280;23691;52.486;4.650;2023-05-02T06:05:23;102547.53;;;11.03;61.90
37852;BME280;23691;52.486;4.650;2023-05-02T06:07:49;102555.56;;;11.03;61.78
37852;BME280;23691;52.486;4.650;2023-05-02T06:10:14;102558.72;;;11.08;61.71
37852;BME280;23691;52.486;4.650;2023-05-02T06:12:40;102559.19;;;11.13;61.85
37852;BME280;23691;52.486;4.650;2023-05-02T06:15:06;102557.34;;;11.13;61.24
37852;BME280;23691;52.486;4.650;2023-05-02T06:17:31;102570.94;;;11.33;61.29
37852;BME280;23691;52.486;4.650;2023-05-02T06:19:57;102572.06;;;11.51;60.88
37852;BME280;23691;52.486;4.650;2023-05-02T06:22:22;102581.03;;;11.61;60.54
37852;BME280;23691;52.486;4.650;2023-05-02T06:24:47;102577.03;;;11.56;60.51
37852;BME280;23691;52.486;4.650;2023-05-02T06:27:13;102585.31;;;11.64;60.41
37852;BME280;23691;52.486;4.650;2023-05-02T06:29:38;102583.00;;;11.80;60.15
37852;BME280;23691;52.486;4.650;2023-05-02T06:32:03;102591.09;;;12.01;59.81
37852;BME280;23691;52.486;4.650;2023-05-02T06:34:32;102593.19;;;12.19;59.19
37852;BME280;23691;52.486;4.650;2023-05-02T06:36:58;102580.78;;;12.28;58.24
37852;BME280;23691;52.486;4.650;2023-05-02T06:39:23;102587.94;;;12.17;57.91
37852;BME280;23691;52.486;4.650;2023-05-02T06:41:49;102599.13;;;12.22;57.41
37852;BME280;23691;52.486;4.650;2023-05-02T06:44:14;102594.25;;;12.37;56.06
37852;BME280;23691;52.486;4.650;2023-05-02T06:46:40;102596.09;;;12.37;54.45
37852;BME280;23691;52.486;4.650;2023-05-02T06:49:05;102596.72;;;12.50;53.88
37852;BME280;23691;52.486;4.650;2023-05-02T06:51:30;102614.03;;;12.67;52.90
37852;BME280;23691;52.486;4.650;2023-05-02T06:53:56;102606.63;;;12.90;52.53
37852;BME280;23691;52.486;4.650;2023-05-02T06:56:22;102609.94;;;13.13;51.56
37852;BME280;23691;52.486;4.650;2023-05-02T06:58:49;102608.44;;;13.30;50.98
37852;BME280;23691;52.486;4.650;2023-05-02T07:01:15;102610.28;;;13.29;50.56
37852;BME280;23691;52.486;4.650;2023-05-02T07:03:40;102613.34;;;13.15;50.50
37852;BME280;23691;52.486;4.650;2023-05-02T07:06:05;102619.50;;;12.96;50.69
37852;BME280;23691;52.486;4.650;2023-05-02T07:08:31;102628.63;;;12.74;49.87
37852;BME280;23691;52.486;4.650;2023-05-02T07:10:56;102628.41;;;12.56;49.84
37852;BME280;23691;52.486;4.650;2023-05-02T07:13:21;102635.75;;;12.54;49.98
37852;BME280;23691;52.486;4.650;2023-05-02T07:15:47;102644.91;;;12.52;49.56
37852;BME280;23691;52.486;4.650;2023-05-02T07:18:12;102646.75;;;12.51;48.91
37852;BME280;23691;52.486;4.650;2023-05-02T07:20:37;102641.22;;;12.53;48.56
37852;BME280;23691;52.486;4.650;2023-05-02T07:23:05;102637.22;;;12.68;48.30
37852;BME280;23691;52.486;4.650;2023-05-02T07:25:30;102641.56;;;12.90;47.89
37852;BME280;23691;52.486;4.650;2023-05-02T07:27:56;102637.44;;;12.86;47.81
37852;BME280;23691;52.486;4.650;2023-05-02T07:30:22;102644.72;;;12.74;48.06
37852;BME280;23691;52.486;4.650;2023-05-02T07:32:47;102636.63;;;12.64;48.08
37852;BME280;23691;52.486;4.650;2023-05-02T07:35:12;102641.59;;;12.69;48.19
37852;BME280;23691;52.486;4.650;2023-05-02T07:37:38;102652.06;;;12.72;48.44
37852;BME280;23691;52.486;4.650;2023-05-02T07:40:03;102646.97;;;12.69;48.09
37852;BME280;23691;52.486;4.650;2023-05-02T07:42:29;102649.22;;;12.95;47.63
37852;BME280;23691;52.486;4.650;2023-05-02T07:44:55;102658.03;;;13.16;47.10
37852;BME280;23691;52.486;4.650;2023-05-02T07:47:20;102655.28;;;13.27;46.67
37852;BME280;23691;52.486;4.650;2023-05-02T07:49:50;102661.50;;;13.28;46.28
37852;BME280;23691;52.486;4.650;2023-05-02T07:52:15;102660.66;;;13.27;46.25
37852;BME280;23691;52.486;4.650;2023-05-02T07:54:41;102658.44;;;13.52;46.29
37852;BME280;23691;52.486;4.650;2023-05-02T07:57:06;102657.75;;;13.99;45.83
37852;BME280;23691;52.486;4.650;2023-05-02T07:59:32;102652.34;;;14.18;45.17
37852;BME280;23691;52.486;4.650;2023-05-02T08:01:58;102664.50;;;14.22;45.14
37852;BME280;23691;52.486;4.650;2023-05-02T08:04:24;102665.59;;;14.39;45.30
37852;BME280;23691;52.486;4.650;2023-05-02T08:06:50;102660.47;;;14.46;44.72
37852;BME280;23691;52.486;4.650;2023-05-02T08:09:15;102671.41;;;14.34;44.38
37852;BME280;23691;52.486;4.650;2023-05-02T08:11:41;102670.03;;;14.21;44.97
37852;BME280;23691;52.486;4.650;2023-05-02T08:14:06;102671.59;;;14.13;45.11
37852;BME280;23691;52.486;4.650;2023-05-02T08:16:32;102677.00;;;14.04;44.85
37852;BME280;23691;52.486;4.650;2023-05-02T08:18:57;102684.47;;;13.90;44.45
37852;BME280;23691;52.486;4.650;2023-05-02T08:21:22;102678.56;;;13.87;44.41
37852;BME280;23691;52.486;4.650;2023-05-02T08:23:48;102678.13;;;13.91;44.42
37852;BME280;23691;52.486;4.650;2023-05-02T08:26:13;102679.38;;;14.07;44.28
37852;BME280;23691;52.486;4.650;2023-05-02T08:28:40;102688.88;;;14.21;44.03
37852;BME280;23691;52.486;4.650;2023-05-02T08:31:05;102683.50;;;14.21;43.73
37852;BME280;23691;52.486;4.650;2023-05-02T08:33:30;102692.13;;;14.14;43.27
37852;BME280;23691;52.486;4.650;2023-05-02T08:35:56;102688.59;;;14.04;43.08
37852;BME280;23691;52.486;4.650;2023-05-02T08:38:21;102697.53;;;14.05;43.15
37852;BME280;23691;52.486;4.650;2023-05-02T08:40:46;102698.34;;;14.25;42.94
37852;BME280;23691;52.486;4.650;2023-05-02T08:43:12;102696.34;;;14.56;42.55
37852;BME280;23691;52.486;4.650;2023-05-02T08:45:43;102705.94;;;14.78;42.57
37852;BME280;23691;52.486;4.650;2023-05-02T08:48:10;102694.69;;;14.92;42.35
37852;BME280;23691;52.486;4.650;2023-05-02T08:50:41;102705.41;;;15.02;42.18
37852;BME280;23691;52.486;4.650;2023-05-02T08:53:08;102714.28;;;14.85;41.98
37852;BME280;23691;52.486;4.650;2023-05-02T08:55:37;102717.81;;;14.85;42.52
37852;BME280;23691;52.486;4.650;2023-05-02T08:58:04;102722.59;;;14.91;41.92
37852;BME280;23691;52.486;4.650;2023-05-02T09:00:30;102721.06;;;14.89;41.64
37852;BME280;23691;52.486;4.650;2023-05-02T09:03:05;102720.28;;;14.69;41.64
37852;BME280;23691;52.486;4.650;2023-05-02T09:05:33;102727.66;;;14.57;41.65
37852;BME280;23691;52.486;4.650;2023-05-02T09:08:00;102722.97;;;14.49;42.01
37852;BME280;23691;52.486;4.650;2023-05-02T09:10:27;102731.06;;;14.30;41.98
37852;BME280;23691;52.486;4.650;2023-05-02T09:12:53;102730.22;;;14.10;42.28
37852;BME280;23691;52.486;4.650;2023-05-02T09:15:19;102721.59;;;14.45;41.78
37852;BME280;23691;52.486;4.650;2023-05-02T09:17:45;102723.88;;;14.97;40.89
37852;BME280;23691;52.486;4.650;2023-05-02T09:20:13;102726.91;;;14.84;40.56
37852;BME280;23691;52.486;4.650;2023-05-02T09:22:40;102732.03;;;14.77;40.88
37852;BME280;23691;52.486;4.650;2023-05-02T09:25:12;102735.72;;;14.67;41.18
37852;BME280;23691;52.486;4.650;2023-05-02T09:27:52;102741.16;;;14.47;41.53
37852;BME280;23691;52.486;4.650;2023-05-02T09:32:44;102740.16;;;14.58;41.53
37852;BME280;23691;52.486;4.650;2023-05-02T09:35:10;102745.13;;;14.63;40.88
37852;BME280;23691;52.486;4.650;2023-05-02T09:37:36;102751.34;;;14.44;41.12
37852;BME280;23691;52.486;4.650;2023-05-02T09:40:05;102754.47;;;14.39;41.04
37852;BME280;23691;52.486;4.650;2023-05-02T09:42:31;102759.00;;;14.38;41.22
37852;BME280;23691;52.486;4.650;2023-05-02T09:44:57;102758.28;;;14.36;41.13
37852;BME280;23691;52.486;4.650;2023-05-02T09:47:25;102763.94;;;14.53;40.92
37852;BME280;23691;52.486;4.650;2023-05-02T09:49:51;102762.63;;;14.86;40.85
37852;BME280;23691;52.486;4.650;2023-05-02T09:52:18;102761.16;;;15.11;40.82
37852;BME280;23691;52.486;4.650;2023-05-02T09:54:46;102770.84;;;14.94;40.64
37852;BME280;23691;52.486;4.650;2023-05-02T09:57:11;102775.72;;;14.71;40.44
37852;BME280;23691;52.486;4.650;2023-05-02T09:59:38;102770.31;;;14.71;40.29
37852;BME280;23691;52.486;4.650;2023-05-02T10:02:05;102779.53;;;14.69;39.86
37852;BME280;23691;52.486;4.650;2023-05-02T10:04:32;102773.75;;;14.54;39.79
37852;BME280;23691;52.486;4.650;2023-05-02T10:06:58;102777.56;;;14.42;40.02
37852;BME280;23691;52.486;4.650;2023-05-02T10:09:25;102783.22;;;14.29;39.98
37852;BME280;23691;52.486;4.650;2023-05-02T10:11:55;102780.84;;;14.26;39.69
37852;BME280;23691;52.486;4.650;2023-05-02T10:14:22;102779.69;;;14.18;39.59
37852;BME280;23691;52.486;4.650;2023-05-02T10:16:52;102797.81;;;14.16;39.75
37852;BME280;23691;52.486;4.650;2023-05-02T10:19:25;102783.22;;;14.38;39.60
37852;BME280;23691;52.486;4.650;2023-05-02T10:21:52;102785.66;;;14.61;39.09
37852;BME280;23691;52.486;4.650;2023-05-02T10:24:18;102790.47;;;14.48;39.06
37852;BME280;23691;52.486;4.650;2023-05-02T10:26:46;102780.13;;;14.33;39.14
37852;BME280;23691;52.486;4.650;2023-05-02T10:29:12;102792.03;;;14.41;39.36
37852;BME280;23691;52.486;4.650;2023-05-02T10:31:38;102791.19;;;14.40;39.00
37852;BME280;23691;52.486;4.650;2023-05-02T10:34:07;102797.84;;;14.46;38.87
37852;BME280;23691;52.486;4.650;2023-05-02T10:36:34;102788.63;;;14.48;38.77
37852;BME280;23691;52.486;4.650;2023-05-02T10:39:01;102792.75;;;14.62;38.63
37852;BME280;23691;52.486;4.650;2023-05-02T10:41:29;102794.03;;;14.58;38.36
37852;BME280;23691;52.486;4.650;2023-05-02T10:43:56;102803.25;;;14.55;38.52
37852;BME280;23691;52.486;4.650;2023-05-02T10:46:38;102788.22;;;14.63;38.58
37852;BME280;23691;52.486;4.650;2023-05-02T10:49:11;102793.16;;;14.77;38.04
37852;BME280;23691;52.486;4.650;2023-05-02T10:51:39;102800.22;;;14.78;38.22
37852;BME280;23691;52.486;4.650;2023-05-02T10:59:30;102800.69;;;15.20;38.19
37852;BME280;23691;52.486;4.650;2023-05-02T11:01:56;102802.53;;;15.20;38.18
37852;BME280;23691;52.486;4.650;2023-05-02T11:04:23;102803.03;;;15.33;38.10
37852;BME280;23691;52.486;4.650;2023-05-02T11:09:30;102791.31;;;15.52;37.63
37852;BME280;23691;52.486;4.650;2023-05-02T11:11:56;102796.28;;;15.84;37.20
37852;BME280;23691;52.486;4.650;2023-05-02T11:19:25;102798.53;;;16.07;37.08
37852;BME280;23691;52.486;4.650;2023-05-02T11:21:51;102803.72;;;16.18;36.95
37852;BME280;23691;52.486;4.650;2023-05-02T11:35:06;102816.38;;;16.18;37.14
37852;BME280;23691;52.486;4.650;2023-05-02T11:37:32;102812.44;;;16.12;37.42
37852;BME280;23691;52.486;4.650;2023-05-02T11:40:09;102813.50;;;16.19;37.04
37852;BME280;23691;52.486;4.650;2023-05-02T11:42:35;102816.22;;;16.19;36.79
37852;BME280;23691;52.486;4.650;2023-05-02T11:45:00;102827.91;;;15.92;37.34
37852;BME280;23691;52.486;4.650;2023-05-02T11:47:26;102834.13;;;15.65;37.27
37852;BME280;23691;52.486;4.650;2023-05-02T11:49:54;102836.00;;;15.64;37.63
37852;BME280;23691;52.486;4.650;2023-05-02T11:52:21;102837.59;;;15.85;37.39
37852;BME280;23691;52.486;4.650;2023-05-02T11:54:47;102837.84;;;15.92;37.27
37852;BME280;23691;52.486;4.650;2023-05-02T11:57:13;102832.91;;;16.15;36.94
37852;BME280;23691;52.486;4.650;2023-05-02T11:59:52;102839.22;;;16.23;37.10
37852;BME280;23691;52.486;4.650;2023-05-02T12:02:18;102833.63;;;15.89;37.39
37852;BME280;23691;52.486;4.650;2023-05-02T12:04:44;102828.59;;;15.94;37.05
37852;BME280;23691;52.486;4.650;2023-05-02T12:07:11;102850.13;;;15.86;36.72
37852;BME280;23691;52.486;4.650;2023-05-02T12:09:52;102848.22;;;15.96;36.80
37852;BME280;23691;52.486;4.650;2023-05-02T12:12:21;102856.94;;;16.08;36.94
37852;BME280;23691;52.486;4.650;2023-05-02T12:14:47;102852.25;;;16.10;36.59
37852;BME280;23691;52.486;4.650;2023-05-02T12:17:12;102849.31;;;16.03;36.30
37852;BME280;23691;52.486;4.650;2023-05-02T12:19:38;102845.91;;;16.01;36.47
37852;BME280;23691;52.486;4.650;2023-05-02T12:22:04;102857.41;;;16.03;36.88
37852;BME280;23691;52.486;4.650;2023-05-02T12:24:30;102858.09;;;16.05;36.69
37852;BME280;23691;52.486;4.650;2023-05-02T12:27:15;102863.97;;;16.01;36.33
37852;BME280;23691;52.486;4.650;2023-05-02T12:29:45;102865.03;;;15.90;36.45
37852;BME280;23691;52.486;4.650;2023-05-02T12:32:11;102868.06;;;16.05;36.29
37852;BME280;23691;52.486;4.650;2023-05-02T12:34:38;102870.84;;;16.13;35.90
37852;BME280;23691;52.486;4.650;2023-05-02T12:37:05;102862.13;;;16.19;36.25
37852;BME280;23691;52.486;4.650;2023-05-02T12:39:37;102871.81;;;16.40;35.97
37852;BME280;23691;52.486;4.650;2023-05-02T12:42:10;102874.63;;;16.56;35.43
37852;BME280;23691;52.486;4.650;2023-05-02T12:44:39;102866.16;;;16.69;35.56
37852;BME280;23691;52.486;4.650;2023-05-02T12:47:06;102859.50;;;16.63;35.18
37852;BME280;23691;52.486;4.650;2023-05-02T12:49:32;102873.78;;;16.73;35.30
37852;BME280;23691;52.486;4.650;2023-05-02T12:51:57;102866.84;;;16.71;35.46
37852;BME280;23691;52.486;4.650;2023-05-02T12:54:23;102875.03;;;16.61;35.22
37852;BME280;23691;52.486;4.650;2023-05-02T12:56:50;102881.38;;;16.70;35.56
37852;BME280;23691;52.486;4.650;2023-05-02T12:59:31;102886.78;;;16.88;35.08
37852;BME280;23691;52.486;4.650;2023-05-02T13:01:58;102883.84;;;16.99;35.06
37852;BME280;23691;52.486;4.650;2023-05-02T13:04:37;102883.50;;;17.02;35.07
37852;BME280;23691;52.486;4.650;2023-05-02T13:07:06;102879.66;;;17.31;35.22
37852;BME280;23691;52.486;4.650;2023-05-02T13:09:32;102879.81;;;17.29;34.96
37852;BME280;23691;52.486;4.650;2023-05-02T13:11:57;102891.69;;;17.10;34.97
37852;BME280;23691;52.486;4.650;2023-05-02T13:14:29;102903.47;;;17.01;35.07
37852;BME280;23691;52.486;4.650;2023-05-02T13:16:54;102886.41;;;17.01;35.14
37852;BME280;23691;52.486;4.650;2023-05-02T13:19:20;102886.06;;;17.04;35.11
37852;BME280;23691;52.486;4.650;2023-05-02T13:21:46;102888.81;;;17.12;34.71
37852;BME280;23691;52.486;4.650;2023-05-02T13:24:12;102891.06;;;17.16;35.00
37852;BME280;23691;52.486;4.650;2023-05-02T13:26:37;102896.00;;;17.21;34.79
37852;BME280;23691;52.486;4.650;2023-05-02T13:29:02;102889.75;;;17.21;34.84
37852;BME280;23691;52.486;4.650;2023-05-02T13:31:28;102901.56;;;17.20;34.97